Penticton, British Columbia

5:22 AM PDT on September 21, 2014 (GMT -0700)
Penticton | Change Station
CLOSE
Current Station
Airport
Location: Penticton,
Elevation: 1129 ft
Nearby Weather Stations

Elev 1129 ft 49.46 °N, 119.61 °W | Updated 22 minutes ago

Clear
Clear
50 °F
Feels Like 50 °F
N
6
Wind Variable Wind from North

Today is forecast to be nearly the same temperature as yesterday.

Today
High -- | Low -- °F
--% Chance of Precip.
Yesterday
High -- | Low -- °F
Precip. -- in
6:43 AM 6:58 PM
Waning Crescent, 7% visible
Pressure 30.05 in
Visibility 15.0 miles
Clouds Clear
Dew Point 41 °F
Humidity 71%
Rainfall 0.00 in
Snow Depth Not available.
UV 0 out of 12
Pollen Not available.
Air Quality Not available.
Flu Activity Not available.
METAR CYYF 211200Z 35005KT 15SM SKC 10/05 A3005 RMK SLP175

More Conditions Fewer Conditions

Pressure 30.05 in
Visibility 15.0 miles
Clouds Clear
Dew Point 41 °F
Humidity 71%
Rainfall 0.00 in
Snow Depth Not available.
UV 0 out of 12
Pollen Not available.
Air Quality Not available.
Flu Activity Not available.
METAR CYYF 211200Z 35005KT 15SM SKC 10/05 A3005 RMK SLP175

More Conditions Fewer Conditions

10-Day Weather Forecast

Almanac

Astronomy

Sep. 21, 2014 Rise Set
Actual Time 6:43 AM PDT 6:58 PM PDT
Civil Twilight 6:11 AM PDT 7:30 PM PDT
Nautical Twilight 5:33 AM PDT 8:07 PM PDT
Astronomical Twilight 4:54 AM PDT 8:46 PM PDT
Moon 4:11 AM PDT 5:44 PM PDT
Length of Visible Light 13h 18m
Length of Day
12h 14m
Tomorrow will be 3m 39s shorter.
Waning Crescent, 7% of the Moon is Illuminated
Today
Waning Crescent
Sep 24
New
Oct 1
First Quarter
Oct 8
Full
Oct 15
Last Quarter

Yesterday's Extremes

Country Highs Country Lows

Community

WunderPhotos

Upload Photos

1,755,126 photos uploaded!

Nearby

Snow Depth

Not available.

Earthquake Activity

City Distance Mag. Time & Date
No recent earthquake activity has been reported nearby.
Minimum magnitude displayed is 2.5.

Coastal Water Temperatures

Place Temperature
No Stations Reporting

Nearby Weather Stations